Terminal Aerodrome Forecast
Issued by NWS Des Moines, IA

Home | Current Version | Previous Version | Text Only | Print | Product List | Glossary On
Versions: 1 2 3 4 5 6 7 8 9 10 11 12 13 14 15 16 17 18 19 20 21 22 23 24 25 26 27 28 29 30 31 32 33 34
000
FTUS43 KDMX 310534
TAFALO
TAF
KALO 310534Z 3106/0106 19006KT P6SM SCT250
     FM311100 22008KT P6SM BKN200
     FM311700 33007KT P6SM SCT040 OVC100
     FM312200 02007KT 4SM -SN SCT015 OVC030
     FM010100 05009KT 1SM -SN SCT008 OVC015
     FM010500 06014KT 3/4SM -SN BLSN OVC008=

USA.gov is the U.S. government's official web portal to all federal, state and local government web resources and services.